If you wish to contribute or participate in the discussions about articles you are invited to join SKYbrary as a registered user

 Actions

Albrook ""Marcos A. Gelabert"" International Airport

From SKYbrary Wiki

MPMG
Airport
ICAO: MPMG – IATA: PAC
Summary
Name Albrook ""Marcos A. Gelabert"" International Airport
Region South America and Caribbean
Territory Panama PA.gif
Location Panama City, Panama
Serving Panama City
Elevation 9.144 m
30 ft9.144 m
Coordinates 8° 58' 23.00" N, 79° 33' 27.00" W
Runways
Designator Length Width Surface ROPS
18/36 1800 m5,905.512 ft
30 m98.425 ft
ASP /


METAR
Observation MPMG 102100Z 16009KT 130V190 9999 FEW018CB 30/24 Q1008 NOSIG
Station Marcos A. Gelabert
Date/Time 10 April 2019 21:00:00
Wind direction 160°
Wind speed 09 kts
Lowest cloud amount few clouds
Temperature 30°C
Dew point 24°C
Humidity 70%
QNH 1008 hPa
Weather condition n/a

Albrook "Marcos A. Gelabert" International Airport is a public airport located 1.5 km west of the center of Panama City, Panama.

Climatology

Tropical savannah climate (Köppen climate classification Aw)

Maps

Terrain

Loading map...

Airport Layout

Loading map...


Accidents & Serious Incidents at or in vicinity of MPMG

None on SKYbrary